Time;durP1;ratioP1;P1;durP2;ratioP2;P2;SDS_P1;SDS_P2;PMS_P1;PMS_P2;Temp;Humidity;BMP_temperature;BMP_pressure;BME280_temperature;BME280_humidity;BME280_pressure;Samples;Min_cycle;Max_cycle;Signal;HPM_P1;HPM_P2
2022/03/10 00:01:10;;;;;;;19.30;13.88;;;4.20;68.20;;;;;;5052826;28;20095;-76
2022/03/10 00:03:36;;;;;;;19.33;12.53;;;4.20;67.90;;;;;;5053365;28;20045;-76
2022/03/10 00:06:02;;;;;;;18.73;13.40;;;4.20;67.60;;;;;;5035126;28;20057;-76
2022/03/10 00:08:28;;;;;;;18.73;12.27;;;4.20;68.40;;;;;;5034844;28;20053;-76
2022/03/10 00:10:54;;;;;;;18.33;12.73;;;4.20;67.80;;;;;;5052522;28;20131;-76
2022/03/10 00:13:19;;;;;;;18.87;12.77;;;4.20;68.10;;;;;;5052958;28;20136;-76
2022/03/10 00:15:45;;;;;;;22.30;13.00;;;4.20;68.50;;;;;;5035648;28;20473;-76
2022/03/10 00:18:11;;;;;;;17.73;11.73;;;4.10;68.80;;;;;;5035114;28;20052;-76
2022/03/10 00:20:36;;;;;;;22.27;12.90;;;4.10;68.40;;;;;;5052698;28;20071;-76
2022/03/10 00:23:02;;;;;;;15.70;11.30;;;4.10;67.70;;;;;;5052835;28;20052;-76
2022/03/10 00:25:28;;;;;;;20.13;11.57;;;4.10;68.00;;;;;;5052527;28;20053;-76
2022/03/10 00:27:54;;;;;;;14.70;10.68;;;4.10;66.60;;;;;;5052776;28;20057;-76
2022/03/10 00:30:20;;;;;;;18.70;10.90;;;4.10;66.40;;;;;;5052769;28;20051;-76
2022/03/10 00:32:48;;;;;;;16.90;11.37;;;4.10;66.60;;;;;;5035033;28;20481;-76
2022/03/10 00:35:15;;;;;;;18.17;11.23;;;4.10;66.30;;;;;;5052015;28;20523;-76
2022/03/10 00:37:41;;;;;;;16.15;11.10;;;4.10;66.20;;;;;;5034938;28;20147;-76
2022/03/10 00:40:07;;;;;;;20.10;12.40;;;4.10;66.00;;;;;;5052717;28;20045;-76
2022/03/10 00:42:37;;;;;;;20.33;11.38;;;4.20;65.80;;;;;;5054354;28;20092;-76
2022/03/10 00:45:04;;;;;;;17.27;11.10;;;4.10;65.70;;;;;;5056656;28;20057;-76
2022/03/10 00:47:30;;;;;;;17.20;11.27;;;4.10;64.80;;;;;;5006046;28;20056;-76
2022/03/10 00:49:56;;;;;;;14.30;10.05;;;4.10;65.10;;;;;;5056731;28;20370;-76
2022/03/10 00:52:21;;;;;;;15.80;10.57;;;4.10;64.80;;;;;;5022179;28;20056;-76
2022/03/10 00:54:47;;;;;;;21.73;11.17;;;4.20;64.80;;;;;;5038737;28;20057;-76
2022/03/10 00:57:13;;;;;;;17.03;10.97;;;4.10;64.60;;;;;;5056251;28;20049;-79
2022/03/10 00:59:38;;;;;;;15.43;9.87;;;4.10;64.60;;;;;;5056352;28;20037;-76
2022/03/10 01:02:04;;;;;;;16.20;10.93;;;4.10;64.40;;;;;;5056326;28;20131;-76
2022/03/10 01:04:30;;;;;;;16.37;10.87;;;4.10;64.60;;;;;;5038286;28;20048;-76
2022/03/10 01:06:55;;;;;;;17.40;10.60;;;4.10;64.30;;;;;;5038089;28;20194;-76
2022/03/10 01:09:21;;;;;;;15.53;10.77;;;4.10;64.20;;;;;;5055676;28;20052;-76
2022/03/10 01:11:47;;;;;;;15.67;11.10;;;4.10;64.70;;;;;;5056300;28;20061;-76
2022/03/10 01:14:12;;;;;;;15.23;10.43;;;4.10;64.40;;;;;;5038758;28;20389;-75
2022/03/10 01:16:38;;;;;;;17.63;10.63;;;4.10;64.20;;;;;;5055743;28;20172;-76
2022/03/10 01:19:04;;;;;;;18.13;10.97;;;4.10;64.30;;;;;;5056016;28;20041;-75
2022/03/10 01:21:30;;;;;;;14.90;10.17;;;4.10;64.30;;;;;;5021547;28;20473;-76
2022/03/10 01:23:55;;;;;;;15.67;11.43;;;4.00;64.00;;;;;;5055953;28;20142;-75
2022/03/10 01:26:21;;;;;;;15.73;10.77;;;4.00;64.20;;;;;;5055588;28;20045;-76
2022/03/10 01:28:47;;;;;;;17.27;10.83;;;4.00;64.30;;;;;;5055801;28;20473;-76
2022/03/10 01:31:13;;;;;;;16.20;10.60;;;4.00;64.40;;;;;;5055783;28;20132;-76
2022/03/10 01:33:39;;;;;;;18.53;10.77;;;3.90;64.30;;;;;;5037697;28;20053;-76
2022/03/10 01:36:04;;;;;;;15.20;10.73;;;3.90;64.30;;;;;;5037637;28;20112;-75
2022/03/10 01:38:30;;;;;;;15.67;10.50;;;3.90;64.30;;;;;;5055466;28;20045;-76
2022/03/10 01:40:56;;;;;;;16.97;10.27;;;3.90;64.10;;;;;;5055606;28;20045;-76
2022/03/10 01:43:22;;;;;;;18.37;10.50;;;3.90;64.10;;;;;;5021261;28;20071;-76
2022/03/10 01:45:47;;;;;;;15.80;10.33;;;3.90;64.00;;;;;;5055631;28;20080;-76
2022/03/10 01:48:13;;;;;;;16.00;10.23;;;3.90;64.40;;;;;;5055524;28;20052;-76
2022/03/10 01:50:39;;;;;;;15.70;10.63;;;3.90;64.30;;;;;;5054906;28;20056;-76
2022/03/10 01:53:05;;;;;;;17.67;10.75;;;3.80;64.10;;;;;;5055048;28;20040;-76
2022/03/10 01:55:31;;;;;;;16.43;11.10;;;3.80;64.20;;;;;;5037212;28;20094;-76
2022/03/10 01:57:58;;;;;;;18.67;10.68;;;3.80;64.50;;;;;;5038555;28;20052;-76
2022/03/10 02:00:24;;;;;;;15.88;10.80;;;3.80;64.40;;;;;;5054961;28;20099;-77
2022/03/10 02:02:49;;;;;;;18.83;10.63;;;3.80;64.30;;;;;;5055677;28;20088;-76
2022/03/10 02:05:15;;;;;;;17.83;10.70;;;3.80;64.40;;;;;;5055004;28;20057;-77
2022/03/10 02:10:27;;;;;;;15.00;9.85;;;3.80;64.60;;;;;;5037403;28;20053;-77
2022/03/10 02:12:55;;;;;;;17.58;11.45;;;3.70;64.60;;;;;;5037239;28;20500;-77
2022/03/10 02:18:11;;;;;;;17.35;10.88;;;3.70;64.70;;;;;;5055116;28;20110;-76
2022/03/10 02:20:38;;;;;;;17.98;11.27;;;3.70;65.00;;;;;;5054541;28;20041;-76
2022/03/10 02:23:06;;;;;;;17.70;10.07;;;3.60;64.90;;;;;;5054542;28;20502;-76
2022/03/10 02:25:33;;;;;;;15.73;11.00;;;3.60;65.30;;;;;;5054525;28;20049;-77
2022/03/10 02:27:59;;;;;;;20.05;12.32;;;3.60;65.50;;;;;;5054869;28;20097;-76
2022/03/10 02:30:30;;;;;;;17.30;10.60;;;3.60;66.00;;;;;;5054433;28;20033;-77
2022/03/10 02:32:57;;;;;;;18.15;12.52;;;3.60;65.60;;;;;;5037338;28;20062;-76
2022/03/10 02:35:23;;;;;;;18.65;10.45;;;3.50;66.10;;;;;;5054315;28;20135;-81
2022/03/10 02:37:49;;;;;;;24.23;10.80;;;3.50;66.00;;;;;;5054597;28;20127;-76
2022/03/10 02:40:14;;;;;;;16.03;11.00;;;3.40;65.70;;;;;;5054543;28;20037;-76
2022/03/10 02:42:41;;;;;;;15.80;10.87;;;3.40;65.90;;;;;;5036464;28;20397;-77
2022/03/10 02:45:08;;;;;;;16.73;11.25;;;3.40;66.10;;;;;;5054437;28;20076;-76
2022/03/10 02:47:34;;;;;;;18.10;10.55;;;3.40;65.80;;;;;;5036288;28;20054;-76
2022/03/10 02:50:00;;;;;;;15.70;11.52;;;3.40;65.90;;;;;;5054341;28;20047;-76
2022/03/10 02:52:25;;;;;;;15.30;10.37;;;3.40;66.00;;;;;;5036301;28;20049;-77
2022/03/10 02:54:51;;;;;;;17.70;10.63;;;3.40;66.10;;;;;;5054479;28;20064;-76
2022/03/10 02:57:17;;;;;;;18.43;11.57;;;3.40;66.80;;;;;;5054327;28;20455;-76
2022/03/10 02:59:43;;;;;;;18.77;11.00;;;3.40;66.60;;;;;;5036163;28;20056;-76
2022/03/10 03:02:09;;;;;;;17.10;11.83;;;3.40;66.40;;;;;;5036483;28;20052;-76
2022/03/10 03:04:35;;;;;;;19.92;11.18;;;3.30;66.50;;;;;;5019316;28;20455;-75
2022/03/10 03:07:01;;;;;;;16.30;11.70;;;3.30;66.60;;;;;;5053408;28;20092;-76
2022/03/10 03:09:27;;;;;;;17.92;11.40;;;3.30;67.00;;;;;;5053941;28;20076;-77
2022/03/10 03:11:53;;;;;;;18.47;11.33;;;3.30;66.50;;;;;;5054175;28;20088;-76
2022/03/10 03:14:22;;;;;;;19.33;12.03;;;3.30;66.60;;;;;;5019896;28;20045;-76
2022/03/10 03:16:49;;;;;;;16.63;11.02;;;3.30;66.50;;;;;;5053790;28;20045;-75
2022/03/10 03:19:15;;;;;;;18.08;10.80;;;3.30;66.40;;;;;;5053762;28;20037;-76
2022/03/10 03:21:41;;;;;;;17.40;11.07;;;3.30;66.40;;;;;;5053475;28;20132;-76
2022/03/10 03:24:07;;;;;;;15.73;11.37;;;3.30;66.30;;;;;;5035998;28;20052;-75
2022/03/10 03:26:32;;;;;;;18.73;11.77;;;3.30;66.70;;;;;;5053302;28;20053;-76
2022/03/10 03:28:58;;;;;;;17.57;11.93;;;3.30;66.30;;;;;;5053710;28;20128;-76
2022/03/10 03:31:24;;;;;;;17.97;11.33;;;3.30;67.00;;;;;;5053685;28;20118;-76
2022/03/10 03:33:50;;;;;;;15.70;10.67;;;3.30;66.60;;;;;;5035681;28;20045;-76
2022/03/10 03:36:16;;;;;;;18.15;11.95;;;3.20;66.50;;;;;;5053533;28;20051;-75
2022/03/10 03:38:41;;;;;;;17.73;11.83;;;3.20;66.70;;;;;;5053185;28;20487;-76
2022/03/10 03:41:07;;;;;;;18.70;11.57;;;3.20;66.80;;;;;;5053155;28;20087;-75
2022/03/10 03:43:33;;;;;;;16.73;11.23;;;3.20;66.50;;;;;;5035372;28;20086;-76
2022/03/10 03:45:58;;;;;;;19.53;12.37;;;3.20;66.50;;;;;;5036114;28;20036;-76
2022/03/10 03:48:25;;;;;;;17.17;11.43;;;3.20;66.60;;;;;;5035871;28;20465;-75
2022/03/10 03:50:51;;;;;;;19.08;11.82;;;3.20;66.70;;;;;;5052971;28;20048;-76
2022/03/10 03:53:17;;;;;;;16.73;11.38;;;3.20;66.70;;;;;;5053222;28;20056;-76
2022/03/10 03:55:42;;;;;;;17.40;11.60;;;3.20;66.80;;;;;;5035248;28;20049;-76
2022/03/10 03:58:08;;;;;;;20.30;11.93;;;3.20;67.50;;;;;;5019162;28;20053;-76
2022/03/10 04:00:36;;;;;;;18.20;12.13;;;3.20;67.30;;;;;;5052842;28;20045;-76
2022/03/10 04:03:09;;;;;;;17.02;11.77;;;3.20;67.00;;;;;;5035280;28;20048;-76
2022/03/10 04:05:36;;;;;;;19.02;11.55;;;3.20;67.30;;;;;;5034861;28;20053;-76
2022/03/10 04:08:01;;;;;;;21.73;12.48;;;3.10;67.00;;;;;;5053006;28;20128;-76
2022/03/10 04:10:27;;;;;;;19.57;12.20;;;3.10;67.30;;;;;;5019151;28;20134;-76
2022/03/10 04:12:53;;;;;;;20.20;13.13;;;3.10;67.40;;;;;;5035050;28;20098;-76
2022/03/10 04:15:19;;;;;;;21.40;12.57;;;3.20;90.20;;;;;;5052938;28;20084;-75
2022/03/10 04:17:45;;;;;;;20.50;12.30;;;3.10;67.10;;;;;;5052287;28;20084;-76
2022/03/10 04:20:13;;;;;;;19.63;12.00;;;3.00;67.00;;;;;;5034974;28;20132;-76
2022/03/10 04:22:40;;;;;;;17.73;11.48;;;3.00;67.90;;;;;;5034738;28;20383;-76
2022/03/10 04:25:07;;;;;;;19.25;12.32;;;3.00;67.10;;;;;;5053159;28;20049;-76
2022/03/10 04:27:32;;;;;;;21.48;12.60;;;3.00;66.90;;;;;;5018872;28;20053;-76
2022/03/10 04:29:58;;;;;;;23.50;12.40;;;3.00;66.90;;;;;;5002015;28;20392;-76
2022/03/10 04:32:25;;;;;;;18.17;12.47;;;3.00;66.80;;;;;;5018820;28;20052;-76
2022/03/10 04:34:50;;;;;;;19.35;12.55;;;3.00;67.10;;;;;;5034706;28;20275;-76
2022/03/10 04:37:16;;;;;;;18.43;12.20;;;3.00;67.00;;;;;;5052448;28;20045;-76
2022/03/10 04:39:42;;;;;;;17.80;12.00;;;3.00;67.10;;;;;;5052248;28;20041;-76
2022/03/10 04:42:08;;;;;;;17.40;12.30;;;3.00;67.10;;;;;;5035097;28;20075;-76
2022/03/10 04:44:33;;;;;;;19.60;12.57;;;3.00;67.10;;;;;;5018704;28;20041;-76
2022/03/10 04:46:59;;;;;;;18.43;12.63;;;3.00;67.00;;;;;;5034654;28;20132;-76
2022/03/10 04:49:25;;;;;;;19.00;12.47;;;3.00;66.90;;;;;;5018642;28;20053;-76
2022/03/10 04:51:50;;;;;;;18.77;13.07;;;3.00;66.90;;;;;;5034241;28;20041;-76
2022/03/10 04:54:16;;;;;;;20.23;13.07;;;3.00;66.90;;;;;;5052586;28;20041;-76
2022/03/10 04:56:42;;;;;;;19.10;12.57;;;3.00;66.90;;;;;;5018456;28;20515;-77
2022/03/10 04:59:07;;;;;;;18.00;12.87;;;3.00;66.70;;;;;;5052459;28;20134;-76
2022/03/10 05:01:33;;;;;;;18.33;12.30;;;3.00;66.70;;;;;;5034735;28;20099;-76
2022/03/10 05:03:59;;;;;;;17.57;12.43;;;3.00;66.90;;;;;;5052165;28;20049;-76
2022/03/10 05:06:24;;;;;;;17.53;12.87;;;3.00;66.90;;;;;;5017861;28;20087;-76
2022/03/10 05:08:50;;;;;;;18.03;12.53;;;2.90;66.80;;;;;;5034375;28;20489;-77
2022/03/10 05:11:16;;;;;;;21.50;12.93;;;;;;;;;;5034626;28;20045;-76
2022/03/10 05:13:42;;;;;;;18.50;12.68;;;2.90;66.40;;;;;;5052048;28;20107;-78
2022/03/10 05:16:08;;;;;;;18.90;13.10;;;2.90;67.10;;;;;;5035154;28;20049;-77
2022/03/10 05:18:33;;;;;;;21.47;13.00;;;2.90;67.30;;;;;;5034997;28;20045;-77
2022/03/10 05:20:59;;;;;;;17.63;12.33;;;2.80;67.20;;;;;;5051991;28;20540;-75
2022/03/10 05:23:25;;;;;;;19.00;12.83;;;2.90;67.30;;;;;;5034557;28;20045;-76
2022/03/10 05:25:50;;;;;;;22.13;13.07;;;2.80;67.40;;;;;;5034531;28;20049;-77
2022/03/10 05:28:17;;;;;;;17.77;12.60;;;2.80;67.40;;;;;;5052295;28;20053;-76
2022/03/10 05:30:45;;;;;;;18.65;12.63;;;2.80;67.50;;;;;;5055430;28;20041;-76
2022/03/10 05:33:12;;;;;;;18.13;12.40;;;2.80;67.60;;;;;;5022048;28;20064;-76
2022/03/10 05:35:38;;;;;;;19.30;12.95;;;2.80;67.70;;;;;;5021713;28;20049;-76
2022/03/10 05:38:04;;;;;;;18.88;12.40;;;2.80;67.70;;;;;;5037245;28;20511;-76
2022/03/10 05:40:30;;;;;;;20.03;13.30;;;2.80;67.90;;;;;;5037972;28;20045;-76
2022/03/10 05:42:57;;;;;;;19.08;12.77;;;2.80;67.70;;;;;;5037834;28;20052;-76
2022/03/10 05:45:24;;;;;;;20.45;13.10;;;2.80;67.90;;;;;;5005483;28;20409;-76
2022/03/10 05:47:52;;;;;;;19.55;13.07;;;2.70;67.90;;;;;;5037471;28;20044;-77
2022/03/10 05:50:19;;;;;;;24.23;12.73;;;2.70;67.80;;;;;;5037799;28;20107;-77
2022/03/10 05:52:45;;;;;;;20.27;13.63;;;2.70;67.80;;;;;;5054830;28;20554;-78
2022/03/10 05:55:16;;;;;;;20.15;13.07;;;2.70;68.00;;;;;;5055401;28;20056;-77
2022/03/10 05:57:42;;;;;;;23.48;13.13;;;2.70;67.90;;;;;;5055527;28;20045;-77
2022/03/10 06:00:10;;;;;;;18.80;12.75;;;;;;;;;;5037497;28;20111;-77
2022/03/10 06:02:36;;;;;;;23.23;13.52;;;2.70;67.40;;;;;;5037762;28;20053;-77
2022/03/10 06:05:03;;;;;;;21.58;13.13;;;2.70;68.10;;;;;;5037098;28;20057;-77
2022/03/10 06:07:29;;;;;;;19.45;13.32;;;2.70;68.10;;;;;;5055618;28;20056;-76
2022/03/10 06:09:55;;;;;;;20.67;13.33;;;2.70;68.20;;;;;;5037311;28;20052;-77
2022/03/10 06:12:23;;;;;;;18.10;13.27;;;2.70;68.30;;;;;;5037638;28;20378;-77
2022/03/10 06:14:48;;;;;;;20.10;13.05;;;2.70;68.30;;;;;;5054775;28;20040;-77
2022/03/10 06:17:14;;;;;;;21.53;13.70;;;2.80;68.00;;;;;;5020976;28;20397;-77
2022/03/10 06:19:40;;;;;;;24.57;14.27;;;2.80;67.80;;;;;;5054994;28;20128;-77
2022/03/10 06:22:05;;;;;;;22.67;13.63;;;2.80;67.80;;;;;;5054748;28;20055;-77
2022/03/10 06:24:31;;;;;;;21.40;12.73;;;2.90;67.80;;;;;;5055051;28;20424;-77
2022/03/10 06:26:57;;;;;;;28.00;21.40;;;2.90;67.80;;;;;;5020418;28;20055;-76
2022/03/10 06:29:22;;;;;;;38.33;31.77;;;2.90;67.80;;;;;;5054506;28;20183;-75
2022/03/10 06:31:51;;;;;;;27.57;19.27;;;2.90;67.90;;;;;;5036663;28;20044;-76
2022/03/10 06:34:17;;;;;;;22.65;13.93;;;2.90;67.90;;;;;;5054711;28;20124;-75
2022/03/10 06:36:42;;;;;;;21.50;14.83;;;2.90;68.00;;;;;;5054726;28;20151;-75
2022/03/10 06:39:08;;;;;;;20.23;13.40;;;2.90;68.10;;;;;;5054262;28;20044;-76
2022/03/10 06:41:34;;;;;;;19.67;14.63;;;2.90;68.10;;;;;;5036863;28;20432;-76
2022/03/10 06:43:59;;;;;;;20.37;15.30;;;2.90;68.20;;;;;;5054204;28;20049;-76
2022/03/10 06:46:25;;;;;;;23.17;15.37;;;3.00;68.40;;;;;;5036762;28;20041;-76
2022/03/10 06:48:51;;;;;;;21.57;14.13;;;3.00;67.90;;;;;;5054160;28;20045;-76
2022/03/10 06:51:16;;;;;;;23.93;17.93;;;3.00;67.80;;;;;;5036628;28;20045;-76
2022/03/10 06:53:42;;;;;;;19.90;13.20;;;3.00;67.80;;;;;;5020093;28;20051;-76
2022/03/10 06:56:08;;;;;;;21.15;14.25;;;3.00;67.90;;;;;;5036203;28;20626;-76
2022/03/10 06:58:35;;;;;;;19.10;12.97;;;3.10;67.70;;;;;;5054199;28;20049;-76
2022/03/10 07:01:00;;;;;;;20.23;13.77;;;3.10;67.10;;;;;;5003086;28;20073;-76
2022/03/10 07:03:26;;;;;;;22.83;14.10;;;3.20;67.10;;;;;;5036479;28;20080;-75
2022/03/10 07:05:52;;;;;;;20.90;13.93;;;3.20;67.20;;;;;;5053684;28;20087;-76
2022/03/10 07:08:18;;;;;;;19.13;13.70;;;3.30;67.20;;;;;;5036490;28;20048;-76
2022/03/10 07:10:43;;;;;;;22.40;14.67;;;3.30;67.20;;;;;;5036388;28;20041;-76
2022/03/10 07:13:09;;;;;;;19.67;12.97;;;3.40;67.00;;;;;;5036049;28;20295;-76
2022/03/10 07:15:35;;;;;;;19.73;14.03;;;3.40;67.10;;;;;;5053898;28;20049;-76
2022/03/10 07:18:00;;;;;;;18.00;12.23;;;3.50;66.90;;;;;;5035962;28;20052;-76
2022/03/10 07:20:26;;;;;;;21.03;13.70;;;3.50;66.50;;;;;;5053801;28;20048;-75
2022/03/10 07:22:52;;;;;;;20.60;13.43;;;3.60;66.30;;;;;;5036048;28;20052;-77
2022/03/10 07:25:20;;;;;;;19.03;13.23;;;3.70;66.60;;;;;;5036265;28;20067;-75
2022/03/10 07:27:46;;;;;;;21.60;13.23;;;3.80;66.40;;;;;;5053696;28;20049;-75
2022/03/10 07:30:12;;;;;;;19.67;12.50;;;3.90;65.60;;;;;;5035629;28;20151;-77
2022/03/10 07:32:38;;;;;;;21.45;14.18;;;4.00;65.80;;;;;;5036194;28;20045;-77
2022/03/10 07:35:04;;;;;;;20.80;14.10;;;4.10;66.50;;;;;;5053291;28;20132;-77
2022/03/10 07:37:30;;;;;;;21.45;13.27;;;4.40;66.40;;;;;;5053506;28;20051;-76
2022/03/10 07:39:55;;;;;;;21.03;12.33;;;4.50;65.30;;;;;;5035356;28;20384;-77
2022/03/10 07:42:21;;;;;;;20.60;12.73;;;4.70;64.70;;;;;;5053478;28;20063;-77
2022/03/10 07:44:47;;;;;;;18.17;12.27;;;4.90;64.40;;;;;;5019597;28;20049;-76
2022/03/10 07:47:12;;;;;;;24.27;13.40;;;5.00;63.70;;;;;;5053077;28;20925;-77
2022/03/10 07:49:38;;;;;;;20.00;13.50;;;5.20;63.70;;;;;;5035228;28;20049;-77
2022/03/10 07:52:06;;;;;;;18.80;13.67;;;5.30;63.30;;;;;;5052491;28;20044;-75
2022/03/10 07:54:32;;;;;;;16.90;12.73;;;5.50;62.70;;;;;;5035666;28;20045;-76
2022/03/10 07:56:58;;;;;;;19.73;14.88;;;5.60;62.50;;;;;;5035350;28;20496;-78
2022/03/10 07:59:24;;;;;;;18.63;11.93;;;5.70;62.40;;;;;;5053042;28;20080;-76
2022/03/10 08:01:50;;;;;;;18.63;13.27;;;5.80;62.20;;;;;;5019150;28;20099;-75
2022/03/10 08:04:15;;;;;;;17.97;12.53;;;6.00;60.70;;;;;;5052532;28;20049;-76
2022/03/10 08:06:41;;;;;;;20.03;13.40;;;6.10;60.80;;;;;;5035172;28;20068;-72
2022/03/10 08:09:10;;;;;;;18.87;12.77;;;6.20;60.70;;;;;;5052715;28;20048;-72
2022/03/10 08:11:37;;;;;;;20.25;12.55;;;6.30;60.60;;;;;;5052993;28;20118;-72
2022/03/10 08:14:04;;;;;;;18.65;12.98;;;6.40;60.40;;;;;;5052845;28;20045;-73
2022/03/10 08:16:31;;;;;;;20.23;13.90;;;6.50;59.90;;;;;;5035512;28;20052;-72
2022/03/10 08:18:57;;;;;;;18.50;13.30;;;6.60;60.00;;;;;;5052689;28;20111;-80
2022/03/10 08:21:22;;;;;;;22.27;13.33;;;6.60;59.90;;;;;;5035561;28;20048;-72
2022/03/10 08:23:48;;;;;;;19.63;14.00;;;6.70;59.60;;;;;;5052924;28;20084;-72
2022/03/10 08:26:14;;;;;;;18.23;13.07;;;6.80;60.10;;;;;;5052572;28;20041;-72
2022/03/10 08:28:40;;;;;;;29.07;15.40;;;6.80;59.90;;;;;;5052896;28;20151;-72
2022/03/10 08:31:05;;;;;;;19.47;14.07;;;6.90;59.60;;;;;;5052475;28;20483;-72
2022/03/10 08:33:31;;;;;;;18.47;12.93;;;6.90;59.40;;;;;;5035315;28;20055;-71
2022/03/10 08:35:58;;;;;;;22.67;13.60;;;7.00;59.10;;;;;;5035062;28;20440;-72
2022/03/10 08:38:25;;;;;;;21.05;13.50;;;7.00;58.90;;;;;;5035057;28;20148;-72
2022/03/10 08:40:51;;;;;;;21.67;14.55;;;7.10;59.10;;;;;;5035013;28;20045;-72
2022/03/10 08:43:17;;;;;;;26.25;14.35;;;7.10;59.30;;;;;;5034809;28;20098;-72
2022/03/10 08:45:43;;;;;;;21.47;14.97;;;7.20;58.70;;;;;;5053075;28;20130;-71
2022/03/10 08:48:09;;;;;;;24.80;15.00;;;7.20;59.10;;;;;;5034629;28;20048;-71
2022/03/10 08:50:36;;;;;;;20.03;13.43;;;7.30;58.30;;;;;;5052661;28;20045;-71
2022/03/10 08:53:02;;;;;;;18.38;12.93;;;7.30;58.40;;;;;;5052587;28;20052;-72
2022/03/10 08:55:28;;;;;;;25.58;17.30;;;7.40;58.40;;;;;;5034816;28;20072;-71
2022/03/10 08:57:55;;;;;;;28.27;20.20;;;7.40;58.10;;;;;;5052508;28;20045;-72
2022/03/10 09:00:21;;;;;;;23.35;18.00;;;7.50;57.90;;;;;;5052082;28;20053;-72
2022/03/10 09:02:46;;;;;;;43.23;33.00;;;7.60;58.00;;;;;;5052403;28;20167;-72
2022/03/10 09:05:13;;;;;;;26.67;19.33;;;7.60;58.30;;;;;;5055191;28;20297;-73
2022/03/10 09:07:40;;;;;;;29.50;21.17;;;7.60;58.00;;;;;;5038213;28;20053;-72
2022/03/10 09:10:07;;;;;;;31.65;20.60;;;7.80;57.80;;;;;;5038481;28;20114;-74
2022/03/10 09:12:33;;;;;;;25.63;17.58;;;7.90;57.50;;;;;;5021977;28;20459;-71
2022/03/10 09:14:58;;;;;;;22.87;15.20;;;7.90;57.80;;;;;;5056196;28;20045;-71
2022/03/10 09:17:24;;;;;;;31.27;20.20;;;8.00;57.80;;;;;;5038217;28;20037;-72
2022/03/10 09:19:50;;;;;;;26.07;18.57;;;8.20;57.60;;;;;;5021743;28;20463;-71
2022/03/10 09:22:17;;;;;;;19.47;13.80;;;8.20;57.60;;;;;;5055862;28;20052;-70
2022/03/10 09:24:44;;;;;;;31.73;20.55;;;8.30;57.40;;;;;;5055973;28;20056;-71
2022/03/10 09:27:10;;;;;;;33.88;23.58;;;8.40;57.40;;;;;;5055755;28;20056;-71
2022/03/10 09:29:37;;;;;;;26.63;18.83;;;8.40;56.60;;;;;;5055566;28;20519;-71
2022/03/10 09:32:03;;;;;;;37.45;23.48;;;8.60;56.70;;;;;;5055920;28;20045;-71
2022/03/10 09:34:29;;;;;;;42.15;26.42;;;8.70;55.90;;;;;;5056012;28;20041;-69
2022/03/10 09:36:54;;;;;;;29.10;20.40;;;8.70;56.30;;;;;;5038031;28;20473;-69
2022/03/10 09:39:20;;;;;;;23.57;16.43;;;8.80;56.50;;;;;;5037793;28;20049;-68
2022/03/10 09:41:46;;;;;;;34.77;22.87;;;8.90;56.50;;;;;;5038054;28;20529;-69
2022/03/10 09:44:15;;;;;;;40.65;23.35;;;9.00;56.30;;;;;;5055434;28;20047;-70
2022/03/10 09:46:41;;;;;;;34.20;22.38;;;9.00;56.90;;;;;;5055637;28;20048;-70
2022/03/10 09:49:07;;;;;;;28.70;20.27;;;9.10;57.00;;;;;;5037501;28;20128;-74
2022/03/10 09:51:33;;;;;;;32.23;19.83;;;9.20;56.70;;;;;;5055497;28;20175;-70
2022/03/10 09:53:59;;;;;;;28.00;17.03;;;9.20;56.50;;;;;;5055471;28;20174;-79
2022/03/10 09:56:26;;;;;;;31.42;20.23;;;9.30;56.90;;;;;;5055059;28;20041;-73
2022/03/10 09:58:52;;;;;;;30.23;20.15;;;9.40;55.90;;;;;;5037768;28;20061;-73
2022/03/10 10:01:17;;;;;;;36.03;23.00;;;9.50;55.30;;;;;;5054978;28;20041;-73
2022/03/10 10:03:43;;;;;;;31.33;21.80;;;9.50;56.10;;;;;;5037687;28;20060;-76
2022/03/10 10:06:09;;;;;;;32.13;20.63;;;9.70;55.20;;;;;;5020460;28;20067;-76
2022/03/10 10:08:38;;;;;;;27.50;18.97;;;9.80;54.80;;;;;;5055198;28;20095;-74
2022/03/10 10:11:05;;;;;;;27.63;18.92;;;9.80;54.40;;;;;;5055209;28;20345;-75
2022/03/10 10:13:33;;;;;;;27.35;18.85;;;9.90;54.80;;;;;;5054845;28;20098;-75
2022/03/10 10:16:01;;;;;;;33.33;20.00;;;9.90;55.00;;;;;;5037128;28;20374;-78
2022/03/10 10:18:28;;;;;;;29.75;18.23;;;10.00;55.50;;;;;;5037334;28;20476;-76
2022/03/10 10:20:54;;;;;;;24.60;17.05;;;10.00;55.10;;;;;;5055009;28;20469;-77
2022/03/10 10:23:26;;;;;;;22.77;17.17;;;10.10;55.10;;;;;;5054688;28;20121;-77
2022/03/10 10:25:58;;;;;;;26.50;16.55;;;10.20;55.10;;;;;;5054939;28;20045;-76
2022/03/10 10:28:29;;;;;;;24.67;16.90;;;10.30;54.90;;;;;;5054603;28;20519;-81
2022/03/10 10:31:00;;;;;;;24.48;16.13;;;10.30;53.70;;;;;;5054984;28;20087;-72
2022/03/10 10:33:28;;;;;;;24.77;16.67;;;10.40;53.50;;;;;;5037049;28;20183;-76
2022/03/10 10:36:13;;;;;;;25.75;15.73;;;10.50;53.70;;;;;;5037153;28;20103;-81
2022/03/10 10:38:40;;;;;;;25.83;16.20;;;10.60;52.60;;;;;;5054730;28;20048;-79
2022/03/10 10:41:15;;;;;;;25.02;16.23;;;10.60;53.70;;;;;;5036816;28;20045;-75
2022/03/10 10:43:43;;;;;;;21.80;15.77;;;10.60;53.10;;;;;;5054592;28;20496;-73
2022/03/10 10:46:20;;;;;;;24.85;16.90;;;10.70;52.70;;;;;;5037041;28;20053;-79
2022/03/10 10:48:47;;;;;;;23.08;17.02;;;10.70;51.80;;;;;;5037044;28;20397;-78
2022/03/10 10:51:13;;;;;;;22.83;16.02;;;10.90;52.00;;;;;;5054268;28;20080;-71
2022/03/10 10:53:40;;;;;;;23.20;14.93;;;10.90;52.70;;;;;;5036828;28;20531;-71
2022/03/10 10:56:06;;;;;;;23.50;16.95;;;11.00;52.60;;;;;;5054375;28;20045;-70
2022/03/10 10:58:32;;;;;;;24.52;17.20;;;11.00;52.40;;;;;;5054057;28;21037;-73
2022/03/10 11:00:58;;;;;;;23.92;16.17;;;11.10;52.50;;;;;;5054148;28;20052;-70
2022/03/10 11:03:26;;;;;;;27.17;17.47;;;11.20;52.40;;;;;;5053955;28;20041;-70
2022/03/10 11:05:53;;;;;;;27.70;17.60;;;11.30;52.60;;;;;;5053764;28;20257;-74
2022/03/10 11:08:21;;;;;;;21.73;16.10;;;11.40;51.90;;;;;;5053728;28;20290;-70
2022/03/10 11:10:47;;;;;;;24.57;16.53;;;11.30;51.80;;;;;;5054187;28;20049;-71
2022/03/10 11:13:13;;;;;;;28.43;17.70;;;11.40;69.80;;;;;;5036443;28;20684;-75
2022/03/10 11:15:41;;;;;;;27.63;17.27;;;;;;;;;;5019752;28;20370;-74
2022/03/10 11:18:09;;;;;;;27.83;16.33;;;11.60;51.00;;;;;;5053940;28;20048;-74
2022/03/10 11:20:38;;;;;;;25.02;17.90;;;11.60;51.60;;;;;;5053163;28;20393;-75
2022/03/10 11:23:30;;;;;;;25.85;17.65;;;11.60;50.80;;;;;;5053895;28;20053;-76
2022/03/10 11:26:10;;;;;;;27.03;17.53;;;11.70;50.30;;;;;;5053549;28;20455;-77
2022/03/10 11:28:43;;;;;;;27.20;17.80;;;11.60;50.70;;;;;;5053510;28;20311;-77
2022/03/10 11:31:10;;;;;;;26.40;17.80;;;11.70;51.10;;;;;;5053846;28;20267;-73
2022/03/10 11:33:38;;;;;;;27.83;18.40;;;11.70;50.00;;;;;;5035394;28;20408;-71
2022/03/10 11:36:27;;;;;;;27.77;18.93;;;11.70;50.40;;;;;;5053184;28;20284;-71
2022/03/10 11:39:04;;;;;;;27.70;19.10;;;11.70;50.50;;;;;;5035979;28;20573;-71
2022/03/10 11:41:45;;;;;;;28.43;19.40;;;11.70;50.20;;;;;;5034951;28;20283;-71
2022/03/10 11:44:11;;;;;;;29.77;19.10;;;;;;;;;;5053108;28;20288;-71
2022/03/10 11:46:51;;;;;;;27.27;18.00;;;11.80;49.30;;;;;;5053086;28;20317;-71
2022/03/10 11:49:17;;;;;;;26.97;18.00;;;11.90;48.60;;;;;;5053304;28;20328;-71
2022/03/10 11:51:46;;;;;;;27.93;19.53;;;11.90;49.80;;;;;;5053083;28;20283;-71
2022/03/10 11:54:16;;;;;;;27.60;19.10;;;11.80;50.30;;;;;;5053234;28;20048;-72
2022/03/10 11:56:44;;;;;;;29.73;19.53;;;11.80;50.20;;;;;;5018879;28;20283;-71
2022/03/10 11:59:17;;;;;;;27.73;18.27;;;11.80;49.10;;;;;;5053240;28;20318;-82
2022/03/10 12:01:43;;;;;;;26.60;18.60;;;11.90;49.90;;;;;;5035411;28;20291;-81
2022/03/10 12:04:17;;;;;;;33.10;22.67;;;11.80;49.90;;;;;;5035526;28;20679;-81
2022/03/10 12:06:57;;;;;;;31.60;22.27;;;12.00;49.60;;;;;;5035082;28;20287;-71
2022/03/10 12:09:33;;;;;;;31.63;19.83;;;12.00;49.90;;;;;;5052698;28;20287;-73
2022/03/10 12:12:42;;;;;;;29.70;20.10;;;12.00;50.20;;;;;;5053054;28;20275;-71
2022/03/10 12:15:36;;;;;;;27.67;19.13;;;12.10;47.80;;;;;;5005254;28;20295;-72
2022/03/10 12:18:17;;;;;;;27.17;19.93;;;12.30;49.50;;;;;;5049773;28;20771;-72
2022/03/10 12:20:44;;;;;;;25.63;17.83;;;12.40;49.00;;;;;;5034804;28;20298;-74
2022/03/10 12:23:13;;;;;;;31.73;19.23;;;12.50;48.80;;;;;;5052517;28;20798;-72
2022/03/10 12:25:51;;;;;;;27.90;19.27;;;12.60;48.60;;;;;;5035002;28;20300;-72
2022/03/10 12:28:35;;;;;;;26.30;18.17;;;12.70;47.40;;;;;;5053207;28;20279;-78
2022/03/10 12:31:14;;;;;;;27.77;18.93;;;12.70;47.90;;;;;;5035349;28;20327;-78
2022/03/10 12:33:57;;;;;;;27.30;19.00;;;12.70;48.40;;;;;;5052561;28;20418;-78
2022/03/10 12:36:34;;;;;;;30.33;18.70;;;12.80;48.00;;;;;;5052548;28;20296;-79
2022/03/10 12:39:15;;;;;;;29.13;19.07;;;12.80;48.00;;;;;;5055874;28;20279;-78
2022/03/10 12:41:42;;;;;;;26.73;18.83;;;12.80;48.10;;;;;;5039058;28;20295;-78